Time;durP1;ratioP1;P1;durP2;ratioP2;P2;SDS_P1;SDS_P2;PMS_P1;PMS_P2;Temp;Humidity;BMP_temperature;BMP_pressure;BME280_temperature;BME280_humidity;BME280_pressure;Samples;Min_cycle;Max_cycle;Signal;HPM_P1;HPM_P2
2021/11/08 00:00:26;;;;;;;1.00;1.00;;;5.00;99.90;;;;;;5094778;28;20085;-76
2021/11/08 00:03:16;;;;;;;0.25;0.25;;;4.90;99.90;;;;;;5095615;28;20075;-75
2021/11/08 00:06:04;;;;;;;0.10;0.10;;;5.10;99.90;;;;;;5095037;28;20507;-75
2021/11/08 00:08:48;;;;;;;0.93;0.93;;;5.00;99.90;;;;;;5094673;28;20042;-76
2021/11/08 00:11:33;;;;;;;0.20;0.20;;;4.90;99.90;;;;;;5094341;28;20519;-76
2021/11/08 00:14:21;;;;;;;0.68;0.68;;;4.90;99.90;;;;;;5095433;28;20092;-75
2021/11/08 00:17:13;;;;;;;0.40;0.40;;;4.90;99.90;;;;;;5094409;28;20105;-76
2021/11/08 00:20:04;;;;;;;1.17;1.05;;;4.80;99.90;;;;;;5094235;28;20067;-76
2021/11/08 00:22:48;;;;;;;2.13;1.88;;;4.70;99.90;;;;;;5095022;28;20039;-76
2021/11/08 00:25:33;;;;;;;1.30;1.20;;;4.40;99.90;;;;;;5095486;28;20039;-76
2021/11/08 00:28:19;;;;;;;0.30;0.30;;;4.50;99.90;;;;;;5095193;28;20071;-76
2021/11/08 00:31:04;;;;;;;1.55;1.33;;;4.70;99.90;;;;;;5095106;28;20051;-76
2021/11/08 00:33:48;;;;;;;0.68;0.68;;;4.70;99.90;;;;;;5095214;28;20042;-76
2021/11/08 00:36:33;;;;;;;0.35;0.35;;;4.70;99.90;;;;;;5093711;28;20088;-76
2021/11/08 00:39:23;;;;;;;0.05;0.05;;;4.80;99.90;;;;;;5093668;28;20039;-75
2021/11/08 00:42:07;;;;;;;0.80;0.80;;;4.80;99.90;;;;;;5094882;28;20046;-76
2021/11/08 00:44:52;;;;;;;4.20;3.85;;;4.80;99.90;;;;;;5094905;28;20043;-75
2021/11/08 00:47:37;;;;;;;0.20;0.20;;;5.00;99.90;;;;;;5094678;28;20042;-76
2021/11/08 00:50:23;;;;;;;24.30;1.40;;;5.00;99.90;;;;;;5093743;28;20039;-76
2021/11/08 00:53:07;;;;;;;0.70;0.70;;;4.90;99.90;;;;;;5094067;28;20035;-76
2021/11/08 00:55:53;;;;;;;1.52;1.42;;;4.90;99.90;;;;;;5094762;28;20047;-75
2021/11/08 00:58:40;;;;;;;0.63;0.63;;;4.90;99.90;;;;;;5093793;28;20039;-76
2021/11/08 01:01:24;;;;;;;0.10;0.10;;;4.90;99.90;;;;;;5093733;28;20039;-76
2021/11/08 01:04:10;;;;;;;0.10;0.10;;;4.80;99.90;;;;;;5094617;28;20039;-76
2021/11/08 01:06:59;;;;;;;0.20;0.20;;;4.70;99.90;;;;;;5094541;28;20043;-75
2021/11/08 01:09:45;;;;;;;0.05;0.05;;;4.50;99.90;;;;;;5093620;28;20035;-77
2021/11/08 01:12:30;;;;;;;1.23;1.10;;;4.40;99.90;;;;;;5093329;28;20043;-77
2021/11/08 01:15:16;;;;;;;1.65;1.52;;;4.50;99.90;;;;;;5093325;28;20043;-77
2021/11/08 01:18:00;;;;;;;1.33;1.23;;;4.40;99.90;;;;;;5093376;28;20093;-76
2021/11/08 01:20:47;;;;;;;0.90;0.85;;;4.60;99.90;;;;;;5093158;28;20059;-76
2021/11/08 01:23:32;;;;;;;0.20;0.20;;;4.70;99.90;;;;;;5094083;28;20042;-76
2021/11/08 01:26:17;;;;;;;0.10;0.10;;;4.80;99.90;;;;;;5093206;28;20097;-76
2021/11/08 01:29:01;;;;;;;0.10;0.10;;;4.80;99.90;;;;;;5093129;28;20086;-76
2021/11/08 01:31:46;;;;;;;2.72;1.20;;;4.70;99.90;;;;;;5094011;28;20043;-76
2021/11/08 01:34:30;;;;;;;0.10;0.10;;;4.70;99.90;;;;;;5093931;28;20132;-77
2021/11/08 01:37:18;;;;;;;0.10;0.10;;;4.60;99.90;;;;;;5092404;28;20078;-76
2021/11/08 01:40:05;;;;;;;0.08;0.08;;;4.50;99.90;;;;;;5093360;28;20085;-76
2021/11/08 01:42:49;;;;;;;1.45;0.90;;;4.40;99.90;;;;;;5092760;28;20039;-76
2021/11/08 01:45:35;;;;;;;0.45;0.45;;;4.30;99.90;;;;;;5092712;28;20043;-76
2021/11/08 01:48:19;;;;;;;0.65;0.35;;;4.40;99.90;;;;;;5093701;28;20491;-76
2021/11/08 01:51:04;;;;;;;0.55;0.55;;;4.40;99.90;;;;;;5093539;28;20039;-76
2021/11/08 01:53:49;;;;;;;0.45;0.45;;;4.50;99.90;;;;;;5092996;28;20043;-76
2021/11/08 01:56:34;;;;;;;0.13;0.13;;;4.60;99.90;;;;;;5092588;28;20492;-76
2021/11/08 01:59:20;;;;;;;3.42;1.60;;;4.50;99.90;;;;;;5092392;28;20545;-76
2021/11/08 02:02:05;;;;;;;0.52;0.52;;;4.40;99.90;;;;;;5092365;28;20126;-76
2021/11/08 02:04:50;;;;;;;0.45;0.45;;;4.50;99.90;;;;;;5092408;28;20156;-76
2021/11/08 02:07:34;;;;;;;0.75;0.75;;;4.40;99.90;;;;;;5093212;28;20499;-76
2021/11/08 02:10:20;;;;;;;0.10;0.10;;;4.50;99.90;;;;;;5093341;28;20459;-76
2021/11/08 02:13:06;;;;;;;0.10;0.10;;;4.40;99.90;;;;;;5093628;28;20176;-77
2021/11/08 02:15:52;;;;;;;0.90;0.90;;;4.30;99.90;;;;;;5093156;28;20499;-76
2021/11/08 02:18:37;;;;;;;1.25;1.20;;;4.40;99.90;;;;;;5091886;28;20158;-76
2021/11/08 02:21:22;;;;;;;0.57;0.57;;;4.60;99.90;;;;;;5091742;28;20458;-76
2021/11/08 02:24:13;;;;;;;0.10;0.10;;;4.70;99.90;;;;;;5092249;28;20105;-76
2021/11/08 02:26:58;;;;;;;0.30;0.30;;;4.80;99.90;;;;;;5092105;28;20124;-76
2021/11/08 02:29:42;;;;;;;0.20;0.20;;;4.90;99.90;;;;;;5092969;28;20692;-76
2021/11/08 02:32:29;;;;;;;1.95;1.17;;;4.90;99.90;;;;;;5092786;28;20039;-76
2021/11/08 02:35:15;;;;;;;0.40;0.40;;;4.90;99.90;;;;;;5093204;28;20055;-76
2021/11/08 02:38:00;;;;;;;0.10;0.10;;;5.00;99.90;;;;;;5092829;28;20135;-76
2021/11/08 02:40:45;;;;;;;0.40;0.40;;;5.00;99.90;;;;;;5091675;28;20046;-76
2021/11/08 02:43:30;;;;;;;0.10;0.10;;;5.00;99.90;;;;;;5092633;28;20164;-76
2021/11/08 02:46:16;;;;;;;0.10;0.10;;;5.00;99.90;;;;;;5092020;28;20070;-76
2021/11/08 02:49:05;;;;;;;1.27;1.25;;;5.10;99.90;;;;;;5091238;28;20039;-76
2021/11/08 02:51:58;;;;;;;0.52;0.52;;;5.00;99.90;;;;;;5092185;28;20396;-76
2021/11/08 02:54:46;;;;;;;0.57;0.52;;;5.00;99.90;;;;;;5091528;28;20069;-75
2021/11/08 02:57:34;;;;;;;1.55;1.25;;;5.00;99.90;;;;;;5091569;28;20520;-76
2021/11/08 03:00:25;;;;;;;0.55;0.55;;;5.10;99.90;;;;;;5092227;28;20059;-76
2021/11/08 03:03:09;;;;;;;0.47;0.47;;;5.10;99.90;;;;;;5091628;28;20538;-76
2021/11/08 03:06:00;;;;;;;4.18;1.95;;;5.10;99.90;;;;;;5092584;28;20510;-76
2021/11/08 03:08:44;;;;;;;1.80;1.13;;;5.20;99.90;;;;;;5091427;28;20035;-76
2021/11/08 03:11:29;;;;;;;0.15;0.15;;;5.20;99.90;;;;;;5092371;28;20574;-76
2021/11/08 03:14:16;;;;;;;0.50;0.50;;;5.30;99.90;;;;;;5092501;28;20127;-76
2021/11/08 03:17:02;;;;;;;0.20;0.20;;;5.30;99.90;;;;;;5092447;28;20622;-76
2021/11/08 03:19:46;;;;;;;0.73;0.73;;;5.20;99.90;;;;;;5092145;28;20090;-75
2021/11/08 03:22:32;;;;;;;0.10;0.10;;;5.20;99.90;;;;;;5092361;28;20129;-76
2021/11/08 03:25:32;;;;;;;0.60;0.60;;;5.10;99.90;;;;;;5092394;28;20124;-76
2021/11/08 03:28:18;;;;;;;0.45;0.45;;;5.10;99.90;;;;;;5091351;28;20035;-76
2021/11/08 03:31:09;;;;;;;2.35;1.75;;;5.10;99.90;;;;;;5091409;28;20043;-76
2021/11/08 03:33:53;;;;;;;1.75;1.65;;;5.10;99.90;;;;;;5092311;28;20496;-76
2021/11/08 03:36:38;;;;;;;0.47;0.47;;;5.10;99.90;;;;;;5092225;28;20074;-76
2021/11/08 03:39:23;;;;;;;1.35;1.27;;;5.00;99.90;;;;;;5090963;28;20055;-76
2021/11/08 03:42:07;;;;;;;0.00;0.00;;;5.00;99.90;;;;;;5091343;28;20065;-76
2021/11/08 03:44:52;;;;;;;0.20;0.20;;;5.00;99.90;;;;;;5091073;28;20511;-75
2021/11/08 03:47:37;;;;;;;0.05;0.05;;;5.00;99.90;;;;;;5091315;28;20031;-76
2021/11/08 03:50:22;;;;;;;0.10;0.10;;;5.00;99.90;;;;;;5091190;28;20042;-76
2021/11/08 03:53:07;;;;;;;1.02;1.02;;;5.00;99.90;;;;;;5092544;28;20491;-75
2021/11/08 03:55:53;;;;;;;1.17;0.63;;;4.90;99.90;;;;;;5091956;28;20035;-76
2021/11/08 03:58:37;;;;;;;0.93;0.85;;;4.90;99.90;;;;;;5090730;28;20039;-76
2021/11/08 04:01:22;;;;;;;1.13;1.02;;;4.90;99.90;;;;;;5094288;28;20089;-76
2021/11/08 04:04:07;;;;;;;1.70;1.63;;;4.90;99.90;;;;;;5094717;28;20043;-76
2021/11/08 04:06:51;;;;;;;0.25;0.25;;;4.90;99.90;;;;;;5094968;28;20094;-76
2021/11/08 04:09:38;;;;;;;0.30;0.30;;;4.90;99.90;;;;;;5095593;28;20050;-75
2021/11/08 04:12:23;;;;;;;0.20;0.20;;;4.80;99.90;;;;;;5094589;28;20067;-75
2021/11/08 04:15:15;;;;;;;0.10;0.10;;;4.80;99.90;;;;;;5095516;28;20050;-75
2021/11/08 04:17:59;;;;;;;;;;;4.80;99.90;;;;;;5095923;28;20039;-75
2021/11/08 04:20:45;;;;;;;0.10;0.10;;;4.80;99.90;;;;;;5098669;28;19923;-75
2021/11/08 04:23:29;;;;;;;0.32;0.32;;;4.70;99.90;;;;;;5094406;28;20078;-75
2021/11/08 04:26:19;;;;;;;0.13;0.13;;;4.70;99.90;;;;;;5095317;28;20035;-75
2021/11/08 04:29:05;;;;;;;0.17;0.17;;;4.60;99.90;;;;;;5095288;28;20131;-76
2021/11/08 04:31:51;;;;;;;0.10;0.10;;;4.60;99.90;;;;;;5094080;28;20047;-75
2021/11/08 04:34:49;;;;;;;0.22;0.22;;;4.40;99.90;;;;;;5094021;28;20089;-75
2021/11/08 04:37:56;;;;;;;0.10;0.10;;;4.40;99.90;;;;;;5094123;28;20051;-75
2021/11/08 04:49:44;;;;;;;0.10;0.10;;;4.50;99.90;;;;;;5091943;28;20819;-76
2021/11/08 04:53:21;;;;;;;0.20;0.20;;;4.40;99.90;;;;;;5086866;28;20086;-75
2021/11/08 05:30:04;;;;;;;0.10;0.10;;;4.50;99.90;;;;;;5094092;28;20051;-72
2021/11/08 05:32:49;;;;;;;0.63;0.57;;;4.70;99.90;;;;;;5093121;28;20061;-74
2021/11/08 05:35:34;;;;;;;0.20;0.20;;;4.80;99.90;;;;;;5092877;28;20491;-76
2021/11/08 05:38:18;;;;;;;0.22;0.22;;;4.50;99.90;;;;;;5093822;28;20457;-74
2021/11/08 05:41:03;;;;;;;0.10;0.10;;;4.40;99.90;;;;;;5092876;28;20085;-72
2021/11/08 05:43:47;;;;;;;0.10;0.10;;;4.50;99.90;;;;;;5093702;28;20558;-73
2021/11/08 05:46:34;;;;;;;0.10;0.10;;;4.40;99.90;;;;;;5093539;28;20093;-80
2021/11/08 05:49:19;;;;;;;0.98;0.90;;;4.30;99.90;;;;;;5092766;28;20038;-82
2021/11/08 05:52:04;;;;;;;0.08;0.08;;;4.30;99.90;;;;;;5073452;28;20414;-82
2021/11/08 05:54:49;;;;;;;0.10;0.10;;;4.20;99.90;;;;;;5086602;28;20040;-82
2021/11/08 06:51:58;;;;;;;0.55;0.55;;;4.10;99.90;;;;;;5091382;28;20047;-73
2021/11/08 06:54:45;;;;;;;1.00;1.00;;;4.00;99.90;;;;;;5091615;28;20114;-73
2021/11/08 06:57:34;;;;;;;0.10;0.10;;;4.00;99.90;;;;;;5092516;28;20070;-73
2021/11/08 07:00:24;;;;;;;0.47;0.47;;;4.00;99.90;;;;;;5091522;28;20043;-73
2021/11/08 07:03:08;;;;;;;0.38;0.38;;;3.90;99.90;;;;;;5091895;28;20426;-73
2021/11/08 07:05:53;;;;;;;0.10;0.10;;;3.90;99.90;;;;;;5092329;28;20408;-73
2021/11/08 07:08:38;;;;;;;2.00;1.25;;;3.90;99.90;;;;;;5092647;28;20039;-73
2021/11/08 07:11:22;;;;;;;0.10;0.10;;;3.90;99.90;;;;;;5091358;28;20460;-73
2021/11/08 07:14:08;;;;;;;0.30;0.30;;;4.00;99.90;;;;;;5092848;28;20063;-73
2021/11/08 07:16:52;;;;;;;0.25;0.25;;;4.00;99.90;;;;;;5091220;28;20085;-73
2021/11/08 07:19:37;;;;;;;0.63;0.63;;;4.10;99.90;;;;;;5076922;28;20038;-73
2021/11/08 07:22:21;;;;;;;0.65;0.63;;;4.10;99.90;;;;;;5091456;28;20047;-73
2021/11/08 07:25:07;;;;;;;0.40;0.38;;;4.10;99.90;;;;;;5091422;28;20408;-73
2021/11/08 07:27:52;;;;;;;1.17;1.13;;;4.10;99.90;;;;;;5092139;28;20071;-73
2021/11/08 07:30:38;;;;;;;4.20;0.93;;;4.20;99.90;;;;;;5091292;28;20063;-73
2021/11/08 07:33:23;;;;;;;0.20;0.20;;;4.20;99.90;;;;;;5092345;28;20089;-73
2021/11/08 07:36:09;;;;;;;1.27;1.17;;;4.20;99.90;;;;;;5095183;28;20137;-73
2021/11/08 07:38:54;;;;;;;0.10;0.10;;;4.30;99.90;;;;;;5094935;28;20054;-73
2021/11/08 07:41:39;;;;;;;0.30;0.30;;;4.30;99.90;;;;;;5096203;28;20042;-73
2021/11/08 07:44:23;;;;;;;1.10;1.00;;;4.30;99.90;;;;;;5096232;28;20050;-73
2021/11/08 07:47:08;;;;;;;0.10;0.10;;;4.40;99.90;;;;;;5096151;28;20039;-73
2021/11/08 07:49:52;;;;;;;0.10;0.10;;;4.50;99.90;;;;;;5095897;28;20039;-73
2021/11/08 07:52:37;;;;;;;1.48;1.40;;;4.60;99.90;;;;;;5096325;28;20108;-73
2021/11/08 07:55:22;;;;;;;0.85;0.85;;;4.50;99.90;;;;;;5095112;28;20043;-73
2021/11/08 07:58:07;;;;;;;2.05;1.95;;;4.60;99.90;;;;;;5096086;28;20392;-73
2021/11/08 08:00:52;;;;;;;2.05;1.95;;;4.70;99.90;;;;;;5081045;28;20167;-74
2021/11/08 08:03:37;;;;;;;0.40;0.40;;;4.70;99.90;;;;;;5096186;28;20090;-73
2021/11/08 08:06:21;;;;;;;0.57;0.57;;;4.80;99.90;;;;;;5094834;28;20038;-73
2021/11/08 08:09:06;;;;;;;0.10;0.10;;;4.80;99.90;;;;;;5095575;28;20112;-73
2021/11/08 08:11:50;;;;;;;0.45;0.45;;;4.80;99.90;;;;;;5095504;28;20137;-73
2021/11/08 08:14:35;;;;;;;4.53;1.17;;;4.80;99.90;;;;;;5095373;28;20039;-73
2021/11/08 08:17:19;;;;;;;0.10;0.10;;;4.90;99.90;;;;;;5094516;28;20039;-73
2021/11/08 08:20:16;;;;;;;0.30;0.30;;;4.90;99.90;;;;;;5096217;28;20519;-74
2021/11/08 08:23:00;;;;;;;0.43;0.43;;;5.00;99.90;;;;;;5102548;28;20061;-74
2021/11/08 08:25:45;;;;;;;0.10;0.10;;;5.10;99.90;;;;;;5105423;28;20093;-74
2021/11/08 08:28:30;;;;;;;0.25;0.25;;;5.20;99.90;;;;;;5105309;28;20655;-74
2021/11/08 08:31:15;;;;;;;0.10;0.10;;;5.30;99.90;;;;;;5103836;28;20097;-73
2021/11/08 08:34:01;;;;;;;0.73;0.73;;;5.30;99.90;;;;;;5102454;28;20116;-74
2021/11/08 08:36:48;;;;;;;0.35;0.35;;;5.40;99.90;;;;;;5103044;28;20039;-74
2021/11/08 08:39:34;;;;;;;9.15;1.27;;;5.50;99.90;;;;;;5102413;28;20097;-74
2021/11/08 08:42:19;;;;;;;0.40;0.40;;;5.60;99.90;;;;;;5100833;28;20044;-74
2021/11/08 08:45:06;;;;;;;0.30;0.30;;;5.70;99.90;;;;;;5100924;28;20075;-74
2021/11/08 08:47:50;;;;;;;1.73;0.40;;;5.70;99.90;;;;;;5093193;28;20479;-73
2021/11/08 08:50:35;;;;;;;0.20;0.20;;;5.70;99.90;;;;;;5094936;28;20048;-73
2021/11/08 08:53:20;;;;;;;1.75;1.10;;;5.80;99.90;;;;;;5095106;28;20085;-73
2021/11/08 08:56:05;;;;;;;1.23;1.23;;;5.90;99.90;;;;;;5094741;28;20088;-73
2021/11/08 08:58:52;;;;;;;3.72;1.45;;;5.90;99.90;;;;;;5092946;28;20176;-74
2021/11/08 09:01:36;;;;;;;2.28;2.05;;;5.80;99.90;;;;;;5093819;28;20527;-73
2021/11/08 09:04:22;;;;;;;0.88;0.88;;;5.80;99.90;;;;;;5094570;28;20085;-73
2021/11/08 09:07:09;;;;;;;0.57;0.57;;;5.90;99.90;;;;;;5094529;28;20035;-73
2021/11/08 09:09:53;;;;;;;0.93;0.85;;;6.00;99.90;;;;;;5093429;28;20166;-73
2021/11/08 09:12:39;;;;;;;0.10;0.10;;;6.10;99.90;;;;;;5093785;28;20046;-73
2021/11/08 09:15:27;;;;;;;1.58;1.48;;;6.20;99.90;;;;;;5093389;28;20039;-73
2021/11/08 09:18:13;;;;;;;0.30;0.30;;;6.40;99.90;;;;;;5093099;28;20039;-73
2021/11/08 09:20:57;;;;;;;0.85;0.80;;;6.40;99.90;;;;;;5093751;28;20082;-74
2021/11/08 09:23:44;;;;;;;0.22;0.22;;;6.40;99.90;;;;;;5093270;28;20081;-73
2021/11/08 09:26:34;;;;;;;1.20;0.80;;;6.40;99.90;;;;;;5094278;28;20047;-73
2021/11/08 09:29:19;;;;;;;0.47;0.47;;;6.50;99.90;;;;;;5093090;28;20480;-73
2021/11/08 09:32:04;;;;;;;0.15;0.15;;;6.40;99.90;;;;;;5092913;28;20047;-73
2021/11/08 09:34:50;;;;;;;0.30;0.30;;;6.70;99.90;;;;;;5093969;28;20063;-73
2021/11/08 09:37:41;;;;;;;0.88;0.88;;;6.60;99.90;;;;;;5094336;28;20093;-73
2021/11/08 09:40:26;;;;;;;;;;;6.50;99.90;;;;;;5093666;28;20127;-73
2021/11/08 09:43:20;;;;;;;0.00;0.00;;;6.50;99.90;;;;;;5099236;28;19965;-73
2021/11/08 09:46:05;;;;;;;0.75;0.75;;;6.80;99.90;;;;;;5092824;28;20075;-73
2021/11/08 10:05:39;;;;;;;0.10;0.10;;;7.20;99.90;;;;;;5093500;28;20059;-73
2021/11/08 10:08:33;;;;;;;0.80;0.75;;;7.40;99.90;;;;;;5093436;28;20039;-73
2021/11/08 10:11:19;;;;;;;0.50;0.50;;;7.60;99.90;;;;;;5093257;28;20097;-73
2021/11/08 10:14:07;;;;;;;0.68;0.68;;;7.80;99.90;;;;;;5093398;28;20093;-73
2021/11/08 10:16:58;;;;;;;2.33;1.23;;;7.60;99.90;;;;;;5092197;28;20042;-73
2021/11/08 10:19:42;;;;;;;1.00;1.00;;;7.50;99.90;;;;;;5078294;28;20503;-73
2021/11/08 10:22:28;;;;;;;2.17;1.65;;;7.50;99.90;;;;;;5092155;28;20120;-73
2021/11/08 10:25:15;;;;;;;0.90;0.90;;;7.80;99.90;;;;;;5092972;28;20039;-73
2021/11/08 10:28:05;;;;;;;0.30;0.30;;;9.20;99.90;;;;;;5092975;28;20090;-73
2021/11/08 10:31:01;;;;;;;0.00;0.00;;;9.80;99.90;;;;;;5093036;28;20051;-73
2021/11/08 10:33:46;;;;;;;2.78;1.83;;;10.00;99.90;;;;;;5092984;28;20047;-72
2021/11/08 10:36:31;;;;;;;0.38;0.28;;;10.20;99.90;;;;;;5092865;28;20038;-73
2021/11/08 10:39:16;;;;;;;0.20;0.20;;;10.60;99.90;;;;;;5077221;28;20459;-73
2021/11/08 10:42:00;;;;;;;0.90;0.90;;;10.90;99.90;;;;;;5092728;28;20039;-73
2021/11/08 10:44:44;;;;;;;7.57;1.27;;;10.90;99.90;;;;;;5091740;28;20120;-73
2021/11/08 10:47:30;;;;;;;0.20;0.20;;;11.30;99.90;;;;;;5091766;28;20035;-73
2021/11/08 10:50:15;;;;;;;4.63;1.55;;;11.40;99.90;;;;;;5092632;28;20242;-72
2021/11/08 10:53:02;;;;;;;0.32;0.32;;;11.90;99.90;;;;;;5092671;28;20088;-72
2021/11/08 10:55:56;;;;;;;3.63;1.75;;;12.10;99.90;;;;;;5091598;28;20039;-73
2021/11/08 10:58:46;;;;;;;0.52;0.52;;;13.40;99.90;;;;;;5091278;28;20123;-72
2021/11/08 11:01:39;;;;;;;4.03;2.10;;;15.60;99.90;;;;;;5091512;28;20034;-73
2021/11/08 11:04:43;;;;;;;1.30;1.20;;;15.60;99.90;;;;;;5077955;28;20051;-73
2021/11/08 11:07:38;;;;;;;19.98;1.75;;;15.80;99.90;;;;;;5078975;28;20039;-73
2021/11/08 11:10:23;;;;;;;1.25;0.85;;;14.30;99.90;;;;;;5079352;28;20152;-73
2021/11/08 11:13:12;;;;;;;0.57;0.52;;;14.10;99.90;;;;;;5095653;28;20119;-72
2021/11/08 11:16:01;;;;;;;1.48;0.50;;;16.60;99.90;;;;;;5095464;28;20035;-72
2021/11/08 11:18:46;;;;;;;1.13;1.02;;;16.60;99.90;;;;;;5096538;28;20031;-73
2021/11/08 11:21:30;;;;;;;1.40;1.30;;;15.30;99.90;;;;;;5095108;28;20576;-72
2021/11/08 11:24:15;;;;;;;4.57;2.63;;;16.20;99.90;;;;;;5095463;28;20074;-72
2021/11/08 11:27:00;;;;;;;1.55;1.15;;;14.50;99.90;;;;;;5095254;28;20039;-72
2021/11/08 11:29:44;;;;;;;2.72;1.73;;;16.40;99.90;;;;;;5095356;28;20079;-72
2021/11/08 11:32:29;;;;;;;4.47;2.70;;;14.10;99.90;;;;;;5096258;28;20047;-72
2021/11/08 11:35:21;;;;;;;1.52;1.33;;;15.10;99.90;;;;;;5096065;28;20035;-72
2021/11/08 11:38:16;;;;;;;0.77;0.65;;;16.40;99.90;;;;;;5094940;28;20043;-72
2021/11/08 11:41:16;;;;;;;1.33;1.08;;;17.50;99.90;;;;;;5096213;28;20077;-72
2021/11/08 11:44:25;;;;;;;1.50;1.40;;;18.80;96.30;;;;;;5096049;28;20086;-73
2021/11/08 11:47:16;;;;;;;1.13;0.77;;;18.20;94.30;;;;;;5094775;28;20081;-73
2021/11/08 11:50:01;;;;;;;3.35;1.73;;;17.70;98.70;;;;;;5095783;28;20767;-72
2021/11/08 11:52:45;;;;;;;2.47;2.15;;;19.50;94.60;;;;;;5094944;28;20381;-73
2021/11/08 11:55:33;;;;;;;1.05;0.95;;;19.30;94.80;;;;;;5094728;28;20097;-72
2021/11/08 11:58:20;;;;;;;2.58;1.17;;;20.50;92.30;;;;;;5095718;28;20081;-72
2021/11/08 12:01:08;;;;;;;3.78;1.70;;;21.20;90.60;;;;;;5095682;28;20040;-73
2021/11/08 12:03:53;;;;;;;0.88;0.40;;;21.40;89.40;;;;;;5095675;28;20415;-72
2021/11/08 12:06:43;;;;;;;2.28;1.48;;;20.80;89.50;;;;;;5094548;28;20039;-73
2021/11/08 12:09:34;;;;;;;1.88;1.63;;;20.40;88.30;;;;;;5094777;28;20100;-72
2021/11/08 12:12:26;;;;;;;3.25;1.75;;;17.20;91.80;;;;;;5094315;28;20075;-73
2021/11/08 12:15:12;;;;;;;2.17;1.30;;;18.60;93.60;;;;;;5094387;28;20118;-72
2021/11/08 12:18:11;;;;;;;1.63;1.52;;;18.00;92.60;;;;;;5095445;28;20112;-71
2021/11/08 12:20:56;;;;;;;1.13;1.02;;;15.40;99.40;;;;;;5094634;28;20523;-72
2021/11/08 12:23:40;;;;;;;0.75;0.73;;;17.40;95.20;;;;;;5095432;28;20097;-71
2021/11/08 12:26:32;;;;;;;1.75;0.85;;;17.10;93.60;;;;;;5095146;28;20039;-72
2021/11/08 12:29:20;;;;;;;;;;;15.80;96.80;;;;;;5094528;28;20088;-71
2021/11/08 12:32:11;;;;;;;1.50;1.10;;;16.40;95.80;;;;;;5094117;28;19919;-72
2021/11/08 12:34:58;;;;;;;8.00;3.45;;;17.10;95.10;;;;;;5095390;28;20089;-72
2021/11/08 12:37:43;;;;;;;7.25;1.98;;;16.50;95.90;;;;;;5093700;28;20078;-72
2021/11/08 12:40:32;;;;;;;2.80;2.15;;;15.60;97.20;;;;;;5079433;28;20135;-71
2021/11/08 12:43:31;;;;;;;2.00;1.75;;;14.70;99.90;;;;;;5095124;28;20043;-72
2021/11/08 12:46:31;;;;;;;5.22;1.42;;;15.40;99.90;;;;;;5093820;28;20123;-71
2021/11/08 12:49:33;;;;;;;0.57;0.57;;;15.40;99.90;;;;;;5094780;28;20039;-72
2021/11/08 12:52:19;;;;;;;;;;;15.10;99.50;;;;;;5094134;28;20504;-72
2021/11/08 12:55:13;;;;;;;3.03;2.25;;;15.00;99.90;;;;;;5101525;28;19919;-71
2021/11/08 12:57:57;;;;;;;2.17;2.08;;;13.40;99.90;;;;;;5100320;28;20103;-72
2021/11/08 13:00:51;;;;;;;1.15;1.08;;;14.00;99.90;;;;;;5094666;28;20455;-72
2021/11/08 13:03:40;;;;;;;0.35;0.35;;;14.30;99.90;;;;;;5093608;28;20039;-72
2021/11/08 13:06:34;;;;;;;4.55;2.20;;;15.20;99.90;;;;;;5094357;28;20085;-72
2021/11/08 13:09:24;;;;;;;1.65;1.50;;;15.40;99.90;;;;;;5093760;28;20051;-72
2021/11/08 13:12:39;;;;;;;2.22;1.98;;;14.90;99.90;;;;;;5094467;28;20396;-72
2021/11/08 13:15:32;;;;;;;1.40;1.10;;;13.60;99.90;;;;;;5093247;28;20081;-72
2021/11/08 13:18:18;;;;;;;1.15;1.05;;;13.80;99.90;;;;;;5093975;28;20055;-72
2021/11/08 13:21:03;;;;;;;5.93;1.83;;;13.40;99.90;;;;;;5092973;28;20054;-72
2021/11/08 13:23:54;;;;;;;10.23;2.47;;;12.30;99.90;;;;;;5094057;28;20147;-72
2021/11/08 13:26:48;;;;;;;4.65;1.35;;;11.70;99.90;;;;;;5094198;28;20051;-72
2021/11/08 13:29:32;;;;;;;0.68;0.68;;;11.50;99.90;;;;;;5079069;28;20535;-72
2021/11/08 13:32:17;;;;;;;1.73;1.63;;;11.40;99.90;;;;;;5093183;28;20550;-72
2021/11/08 13:35:30;;;;;;;0.47;0.47;;;11.70;99.90;;;;;;5107465;28;20055;-72
2021/11/08 13:38:21;;;;;;;5.78;2.15;;;12.50;99.90;;;;;;5092659;28;20055;-72
2021/11/08 13:41:20;;;;;;;0.25;0.25;;;13.00;99.90;;;;;;5092864;28;20054;-72
2021/11/08 13:44:07;;;;;;;0.10;0.10;;;13.50;99.90;;;;;;5093899;28;20043;-72
2021/11/08 13:46:53;;;;;;;1.10;1.02;;;13.40;99.90;;;;;;5092778;28;20046;-72
2021/11/08 13:49:37;;;;;;;14.70;1.17;;;12.80;99.90;;;;;;5093531;28;20480;-72
2021/11/08 13:52:22;;;;;;;1.77;1.67;;;12.70;99.90;;;;;;5093454;28;20381;-72
2021/11/08 13:55:13;;;;;;;4.07;1.70;;;13.00;99.90;;;;;;5092715;28;20070;-72
2021/11/08 13:57:58;;;;;;;;;;;13.30;99.90;;;;;;5093974;28;20055;-72
2021/11/08 14:00:43;;;;;;;0.28;0.25;;;13.20;99.90;;;;;;5100238;28;20012;-72
2021/11/08 14:03:40;;;;;;;1.55;0.65;;;12.80;99.90;;;;;;5092583;28;20085;-72
2021/11/08 14:06:37;;;;;;;1.75;0.52;;;13.50;99.90;;;;;;5106630;28;20046;-72
2021/11/08 14:09:23;;;;;;;3.50;1.02;;;13.80;99.90;;;;;;5092555;28;20506;-73
2021/11/08 14:12:12;;;;;;;4.32;1.40;;;13.60;99.90;;;;;;5093210;28;20101;-72
2021/11/08 14:14:58;;;;;;;3.53;2.30;;;13.20;99.90;;;;;;5092183;28;20066;-72
2021/11/08 14:17:44;;;;;;;0.00;0.00;;;13.10;99.90;;;;;;5092171;28;20141;-73
2021/11/08 14:20:28;;;;;;;0.20;0.20;;;13.00;99.90;;;;;;5092398;28;20055;-72
2021/11/08 14:23:13;;;;;;;0.00;0.00;;;12.80;99.90;;;;;;5092994;28;20537;-73
2021/11/08 14:26:08;;;;;;;0.68;0.68;;;12.70;99.90;;;;;;5077759;28;20046;-73
2021/11/08 14:28:53;;;;;;;0.85;0.85;;;11.90;99.90;;;;;;5092915;28;20071;-72
2021/11/08 14:31:39;;;;;;;1.17;0.95;;;11.80;99.90;;;;;;5093154;28;20038;-73
2021/11/08 14:34:29;;;;;;;4.90;2.75;;;11.60;99.90;;;;;;5091747;28;20038;-72
2021/11/08 14:37:19;;;;;;;1.65;0.50;;;11.70;99.90;;;;;;5091878;28;20141;-72
2021/11/08 14:40:13;;;;;;;0.73;0.57;;;11.70;99.90;;;;;;5091478;28;20554;-72
2021/11/08 14:42:57;;;;;;;2.08;1.15;;;11.70;99.90;;;;;;5091675;28;20487;-72
2021/11/08 14:46:00;;;;;;;0.95;0.90;;;11.70;99.90;;;;;;5091427;28;20035;-72
2021/11/08 14:48:44;;;;;;;1.27;1.13;;;11.30;99.90;;;;;;5091185;28;20039;-72
2021/11/08 14:51:29;;;;;;;1.52;0.85;;;11.40;99.90;;;;;;5092204;28;20039;-72
2021/11/08 14:54:14;;;;;;;6.75;2.35;;;11.40;99.90;;;;;;5091101;28;20121;-73
2021/11/08 14:57:03;;;;;;;0.88;0.85;;;11.40;99.90;;;;;;5091443;28;20101;-73
2021/11/08 14:59:54;;;;;;;0.00;0.00;;;11.20;99.90;;;;;;5091242;28;20074;-72
2021/11/08 15:02:39;;;;;;;0.68;0.68;;;11.10;99.90;;;;;;5092019;28;20120;-73
2021/11/08 15:05:27;;;;;;;0.43;0.43;;;11.00;99.90;;;;;;5092464;28;20042;-72
2021/11/08 15:08:22;;;;;;;0.80;0.80;;;10.90;99.90;;;;;;5091440;28;20393;-73
2021/11/08 15:11:06;;;;;;;0.63;0.52;;;10.90;99.90;;;;;;5092454;28;20092;-72
2021/11/08 15:13:52;;;;;;;1.35;1.02;;;10.60;99.90;;;;;;5077148;28;20043;-73
2021/11/08 15:17:02;;;;;;;0.00;0.00;;;10.70;99.90;;;;;;5092569;28;20128;-73
2021/11/08 15:19:47;;;;;;;0.20;0.20;;;10.70;99.90;;;;;;5091911;28;20457;-73
2021/11/08 15:22:31;;;;;;;1.35;1.25;;;10.60;99.90;;;;;;5091210;28;20089;-73
2021/11/08 15:25:42;;;;;;;4.15;2.58;;;10.60;99.90;;;;;;5091277;28;20156;-73
2021/11/08 15:28:43;;;;;;;1.73;1.45;;;10.60;99.90;;;;;;5091251;28;20078;-73
2021/11/08 15:31:29;;;;;;;0.98;0.98;;;10.50;99.90;;;;;;5091498;28;20047;-73
2021/11/08 15:34:15;;;;;;;2.90;1.85;;;10.50;99.90;;;;;;5090876;28;20039;-73
2021/11/08 15:36:59;;;;;;;3.33;3.13;;;10.40;99.90;;;;;;5090875;28;20062;-73
2021/11/08 15:39:44;;;;;;;1.05;0.95;;;10.50;99.90;;;;;;5091610;28;20563;-73
2021/11/08 15:42:29;;;;;;;0.38;0.38;;;10.50;99.90;;;;;;5091781;28;20063;-73
2021/11/08 15:45:13;;;;;;;1.27;0.73;;;10.50;99.90;;;;;;5092097;28;20086;-73
2021/11/08 15:47:58;;;;;;;10.73;2.50;;;10.50;99.90;;;;;;5091155;28;20039;-73
2021/11/08 15:50:43;;;;;;;2.80;1.40;;;10.50;99.90;;;;;;5091977;28;20079;-73
2021/11/08 15:53:28;;;;;;;0.00;0.00;;;10.50;99.90;;;;;;5091965;28;20070;-73
2021/11/08 15:56:12;;;;;;;0.00;0.00;;;10.50;99.90;;;;;;5092721;28;20507;-73
2021/11/08 15:58:57;;;;;;;0.85;0.85;;;10.50;99.90;;;;;;5080551;28;20081;-73
2021/11/08 16:01:43;;;;;;;0.85;0.85;;;10.50;99.90;;;;;;5095712;28;20066;-73
2021/11/08 16:04:27;;;;;;;1.98;1.05;;;10.50;99.90;;;;;;5094469;28;20112;-73
2021/11/08 16:07:12;;;;;;;0.85;0.85;;;10.50;99.90;;;;;;5095566;28;20086;-73
2021/11/08 16:09:57;;;;;;;0.17;0.17;;;10.50;99.90;;;;;;5094465;28;20625;-72
2021/11/08 16:12:41;;;;;;;1.02;1.02;;;10.40;99.90;;;;;;5095401;28;20093;-74
2021/11/08 16:15:26;;;;;;;1.95;1.02;;;10.50;99.90;;;;;;5095082;28;20127;-74
2021/11/08 16:18:14;;;;;;;0.93;0.82;;;10.50;99.90;;;;;;5095410;28;20518;-74
2021/11/08 16:20:58;;;;;;;1.20;0.52;;;10.40;99.90;;;;;;5094112;28;20047;-74
2021/11/08 16:23:44;;;;;;;2.33;2.05;;;10.30;99.90;;;;;;5095355;28;20086;-74
2021/11/08 16:26:28;;;;;;;1.08;1.08;;;10.10;99.90;;;;;;5095183;28;20107;-74
2021/11/08 16:29:13;;;;;;;0.73;0.73;;;10.10;99.90;;;;;;5094498;28;20439;-75
2021/11/08 16:32:15;;;;;;;0.20;0.20;;;10.00;99.90;;;;;;5094111;28;20151;-75